Schedule Details


Flight Number: CTN413
Departure: Frankfurt/main (EDDF) at 12:05
Arrival: Kastela (LDSP) at 13:45
Route: NOMBO UZ738 MUN UM867 VAROB DCT GIMIX DCT SABAD L862 GISER UL862 PALEZ L862 OKLAX

Weather Information
EDDF 251350Z VRB01KT 6000 OVC004 02/01 Q1022 TEMPO OVC005
LDSP 251330Z 10009KT 070V130 9999 -RA SCT020 OVC037 13/10 Q1023 NOSIG
Schedule Frequency

Route Map